Terminal Aerodrome Forecast
Issued by NWS Cleveland, OH

Home | Current Version | Previous Version | Text Only | Print | Product List | Glossary On
Versions: 1 2 3 4 5 6 7 8 9 10 11 12 13 14 15 16 17 18 19 20 21 22 23 24 25 26 27 28 29 30 31 32 33
618
FTUS41 KCLE 090542
TAFCLE
TAF
KCLE 090542Z 0906/1012 26006KT 5SM BR VCSH SCT006 OVC015
      TEMPO 0906/0907 3SM -SHSN BKN006 OVC015
     FM091000 25008KT P6SM OVC015
      TEMPO 0910/0914 OVC008
     FM091600 28012KT 5SM -SHSN OVC012
     FM092000 27014KT P6SM BKN025
     FM100300 26012KT 3SM -SHSN BKN016=

USA.gov is the U.S. government's official web portal to all federal, state and local government web resources and services.